sensor_id;sensor_type;location;lat;lon;timestamp;P1;durP1;ratioP1;P2;durP2;ratioP2
8058;SDS011;4072;42.668;23.396;2023-09-30T00:02:27;14.70;;;5.63;;
8058;SDS011;4072;42.668;23.396;2023-09-30T00:04:56;8.57;;;5.90;;
8058;SDS011;4072;42.668;23.396;2023-09-30T00:07:24;11.40;;;5.27;;
8058;SDS011;4072;42.668;23.396;2023-09-30T00:09:54;8.53;;;5.53;;
8058;SDS011;4072;42.668;23.396;2023-09-30T00:12:22;9.27;;;6.07;;
8058;SDS011;4072;42.668;23.396;2023-09-30T00:14:52;10.40;;;6.67;;
8058;SDS011;4072;42.668;23.396;2023-09-30T00:17:21;7.30;;;5.67;;
8058;SDS011;4072;42.668;23.396;2023-09-30T00:19:49;7.47;;;5.43;;
8058;SDS011;4072;42.668;23.396;2023-09-30T00:22:17;12.63;;;6.47;;
8058;SDS011;4072;42.668;23.396;2023-09-30T00:24:45;9.80;;;6.90;;
8058;SDS011;4072;42.668;23.396;2023-09-30T00:27:13;8.30;;;5.93;;
8058;SDS011;4072;42.668;23.396;2023-09-30T00:29:42;12.63;;;6.17;;
8058;SDS011;4072;42.668;23.396;2023-09-30T00:32:11;9.67;;;5.93;;
8058;SDS011;4072;42.668;23.396;2023-09-30T00:34:40;9.17;;;5.60;;
8058;SDS011;4072;42.668;23.396;2023-09-30T00:37:09;8.60;;;5.40;;
8058;SDS011;4072;42.668;23.396;2023-09-30T00:39:38;7.60;;;6.30;;
8058;SDS011;4072;42.668;23.396;2023-09-30T00:42:06;8.37;;;5.83;;
8058;SDS011;4072;42.668;23.396;2023-09-30T00:44:34;9.30;;;5.70;;
8058;SDS011;4072;42.668;23.396;2023-09-30T00:47:02;8.93;;;4.87;;
8058;SDS011;4072;42.668;23.396;2023-09-30T00:49:33;10.30;;;5.60;;
8058;SDS011;4072;42.668;23.396;2023-09-30T00:52:01;12.20;;;6.03;;
8058;SDS011;4072;42.668;23.396;2023-09-30T00:54:31;8.07;;;5.70;;
8058;SDS011;4072;42.668;23.396;2023-09-30T00:56:59;6.67;;;5.33;;
8058;SDS011;4072;42.668;23.396;2023-09-30T00:59:28;11.47;;;6.17;;
8058;SDS011;4072;42.668;23.396;2023-09-30T01:02:00;9.20;;;5.80;;
8058;SDS011;4072;42.668;23.396;2023-09-30T01:04:33;9.27;;;5.60;;
8058;SDS011;4072;42.668;23.396;2023-09-30T01:07:01;8.13;;;5.47;;
8058;SDS011;4072;42.668;23.396;2023-09-30T01:09:30;6.43;;;5.20;;
8058;SDS011;4072;42.668;23.396;2023-09-30T01:11:59;9.90;;;5.80;;
8058;SDS011;4072;42.668;23.396;2023-09-30T01:14:27;11.33;;;5.50;;
8058;SDS011;4072;42.668;23.396;2023-09-30T01:16:58;9.93;;;5.33;;
8058;SDS011;4072;42.668;23.396;2023-09-30T01:19:26;8.30;;;5.10;;
8058;SDS011;4072;42.668;23.396;2023-09-30T01:21:57;11.50;;;5.63;;
8058;SDS011;4072;42.668;23.396;2023-09-30T01:24:26;7.13;;;5.23;;
8058;SDS011;4072;42.668;23.396;2023-09-30T01:26:55;9.57;;;6.00;;
8058;SDS011;4072;42.668;23.396;2023-09-30T01:29:23;11.13;;;6.73;;
8058;SDS011;4072;42.668;23.396;2023-09-30T01:31:53;9.97;;;7.10;;
8058;SDS011;4072;42.668;23.396;2023-09-30T01:34:22;8.43;;;6.13;;
8058;SDS011;4072;42.668;23.396;2023-09-30T01:36:50;10.20;;;6.63;;
8058;SDS011;4072;42.668;23.396;2023-09-30T01:39:22;11.03;;;6.43;;
8058;SDS011;4072;42.668;23.396;2023-09-30T01:41:53;8.53;;;6.57;;
8058;SDS011;4072;42.668;23.396;2023-09-30T01:44:21;8.07;;;6.27;;
8058;SDS011;4072;42.668;23.396;2023-09-30T01:46:50;10.17;;;7.57;;
8058;SDS011;4072;42.668;23.396;2023-09-30T01:49:18;11.27;;;7.47;;
8058;SDS011;4072;42.668;23.396;2023-09-30T01:51:46;14.37;;;7.77;;
8058;SDS011;4072;42.668;23.396;2023-09-30T01:54:14;11.07;;;8.17;;
8058;SDS011;4072;42.668;23.396;2023-09-30T01:56:44;11.87;;;7.50;;
8058;SDS011;4072;42.668;23.396;2023-09-30T01:59:12;11.00;;;8.13;;
8058;SDS011;4072;42.668;23.396;2023-09-30T02:01:40;13.10;;;8.63;;
8058;SDS011;4072;42.668;23.396;2023-09-30T02:04:11;10.73;;;8.90;;
8058;SDS011;4072;42.668;23.396;2023-09-30T02:06:39;15.90;;;8.30;;
8058;SDS011;4072;42.668;23.396;2023-09-30T02:09:07;15.67;;;9.07;;
8058;SDS011;4072;42.668;23.396;2023-09-30T02:11:36;9.63;;;7.37;;
8058;SDS011;4072;42.668;23.396;2023-09-30T02:14:05;13.70;;;8.30;;
8058;SDS011;4072;42.668;23.396;2023-09-30T02:16:33;15.10;;;7.73;;
8058;SDS011;4072;42.668;23.396;2023-09-30T02:19:02;11.37;;;7.77;;
8058;SDS011;4072;42.668;23.396;2023-09-30T02:21:30;12.47;;;7.10;;
8058;SDS011;4072;42.668;23.396;2023-09-30T02:23:58;10.27;;;7.27;;
8058;SDS011;4072;42.668;23.396;2023-09-30T02:26:27;11.00;;;7.93;;
8058;SDS011;4072;42.668;23.396;2023-09-30T02:28:55;9.77;;;6.53;;
8058;SDS011;4072;42.668;23.396;2023-09-30T02:31:25;9.90;;;7.00;;
8058;SDS011;4072;42.668;23.396;2023-09-30T02:33:54;16.27;;;8.43;;
8058;SDS011;4072;42.668;23.396;2023-09-30T02:36:22;9.00;;;6.93;;
8058;SDS011;4072;42.668;23.396;2023-09-30T02:38:54;8.43;;;6.23;;
8058;SDS011;4072;42.668;23.396;2023-09-30T02:41:22;9.43;;;6.13;;
8058;SDS011;4072;42.668;23.396;2023-09-30T02:43:50;7.50;;;5.60;;
8058;SDS011;4072;42.668;23.396;2023-09-30T02:46:18;10.03;;;5.93;;
8058;SDS011;4072;42.668;23.396;2023-09-30T02:48:48;10.30;;;6.13;;
8058;SDS011;4072;42.668;23.396;2023-09-30T02:51:16;8.23;;;5.77;;
8058;SDS011;4072;42.668;23.396;2023-09-30T02:53:44;11.17;;;5.77;;
8058;SDS011;4072;42.668;23.396;2023-09-30T02:56:15;10.20;;;6.57;;
8058;SDS011;4072;42.668;23.396;2023-09-30T02:58:45;7.17;;;5.73;;
8058;SDS011;4072;42.668;23.396;2023-09-30T03:01:15;14.60;;;6.30;;
8058;SDS011;4072;42.668;23.396;2023-09-30T03:03:44;7.27;;;6.23;;
8058;SDS011;4072;42.668;23.396;2023-09-30T03:06:13;9.70;;;6.13;;
8058;SDS011;4072;42.668;23.396;2023-09-30T03:08:42;8.23;;;5.97;;
8058;SDS011;4072;42.668;23.396;2023-09-30T03:11:10;9.20;;;5.77;;
8058;SDS011;4072;42.668;23.396;2023-09-30T03:13:39;6.53;;;5.80;;
8058;SDS011;4072;42.668;23.396;2023-09-30T03:16:09;10.70;;;6.43;;
8058;SDS011;4072;42.668;23.396;2023-09-30T03:18:37;8.30;;;6.00;;
8058;SDS011;4072;42.668;23.396;2023-09-30T03:21:13;9.77;;;5.83;;
8058;SDS011;4072;42.668;23.396;2023-09-30T03:23:43;10.33;;;6.00;;
8058;SDS011;4072;42.668;23.396;2023-09-30T03:26:11;9.73;;;6.53;;
8058;SDS011;4072;42.668;23.396;2023-09-30T03:28:42;12.50;;;6.67;;
8058;SDS011;4072;42.668;23.396;2023-09-30T03:31:11;7.83;;;6.00;;
8058;SDS011;4072;42.668;23.396;2023-09-30T03:33:39;10.67;;;6.40;;
8058;SDS011;4072;42.668;23.396;2023-09-30T03:36:08;9.20;;;6.63;;
8058;SDS011;4072;42.668;23.396;2023-09-30T03:38:39;12.80;;;6.57;;
8058;SDS011;4072;42.668;23.396;2023-09-30T03:41:08;11.33;;;6.53;;
8058;SDS011;4072;42.668;23.396;2023-09-30T03:43:39;7.93;;;6.23;;
8058;SDS011;4072;42.668;23.396;2023-09-30T03:46:09;9.63;;;5.73;;
8058;SDS011;4072;42.668;23.396;2023-09-30T03:48:38;12.97;;;7.27;;
8058;SDS011;4072;42.668;23.396;2023-09-30T03:51:09;12.87;;;7.57;;
8058;SDS011;4072;42.668;23.396;2023-09-30T03:53:42;10.63;;;7.00;;
8058;SDS011;4072;42.668;23.396;2023-09-30T03:56:11;7.63;;;6.10;;
8058;SDS011;4072;42.668;23.396;2023-09-30T03:58:41;10.23;;;5.97;;
8058;SDS011;4072;42.668;23.396;2023-09-30T04:01:11;8.00;;;6.03;;
8058;SDS011;4072;42.668;23.396;2023-09-30T04:03:40;10.47;;;6.27;;
8058;SDS011;4072;42.668;23.396;2023-09-30T04:06:10;7.43;;;5.97;;
8058;SDS011;4072;42.668;23.396;2023-09-30T04:08:39;10.03;;;5.63;;
8058;SDS011;4072;42.668;23.396;2023-09-30T04:11:13;7.90;;;6.53;;
8058;SDS011;4072;42.668;23.396;2023-09-30T04:13:45;10.40;;;6.50;;
8058;SDS011;4072;42.668;23.396;2023-09-30T04:16:14;9.43;;;6.57;;
8058;SDS011;4072;42.668;23.396;2023-09-30T04:18:45;10.97;;;7.60;;
8058;SDS011;4072;42.668;23.396;2023-09-30T04:21:14;9.77;;;6.40;;
8058;SDS011;4072;42.668;23.396;2023-09-30T04:23:42;11.03;;;7.00;;
8058;SDS011;4072;42.668;23.396;2023-09-30T04:26:10;12.23;;;7.17;;
8058;SDS011;4072;42.668;23.396;2023-09-30T04:28:40;11.23;;;6.47;;
8058;SDS011;4072;42.668;23.396;2023-09-30T04:31:08;7.60;;;6.00;;
8058;SDS011;4072;42.668;23.396;2023-09-30T04:33:39;13.37;;;6.57;;
8058;SDS011;4072;42.668;23.396;2023-09-30T04:36:07;9.27;;;6.17;;
8058;SDS011;4072;42.668;23.396;2023-09-30T04:38:36;12.20;;;6.60;;
8058;SDS011;4072;42.668;23.396;2023-09-30T04:41:04;6.87;;;5.57;;
8058;SDS011;4072;42.668;23.396;2023-09-30T04:43:34;7.33;;;5.73;;
8058;SDS011;4072;42.668;23.396;2023-09-30T04:46:06;9.97;;;6.07;;
8058;SDS011;4072;42.668;23.396;2023-09-30T04:48:35;11.83;;;6.57;;
8058;SDS011;4072;42.668;23.396;2023-09-30T04:51:05;8.63;;;6.90;;
8058;SDS011;4072;42.668;23.396;2023-09-30T04:53:35;10.13;;;6.23;;
8058;SDS011;4072;42.668;23.396;2023-09-30T04:56:05;11.20;;;6.70;;
8058;SDS011;4072;42.668;23.396;2023-09-30T04:58:33;10.70;;;6.93;;
8058;SDS011;4072;42.668;23.396;2023-09-30T05:01:01;8.83;;;7.07;;
8058;SDS011;4072;42.668;23.396;2023-09-30T05:03:31;9.37;;;6.20;;
8058;SDS011;4072;42.668;23.396;2023-09-30T05:06:00;13.50;;;6.87;;
8058;SDS011;4072;42.668;23.396;2023-09-30T05:08:29;10.83;;;7.37;;
8058;SDS011;4072;42.668;23.396;2023-09-30T05:10:57;9.33;;;6.80;;
8058;SDS011;4072;42.668;23.396;2023-09-30T05:13:26;10.30;;;6.20;;
8058;SDS011;4072;42.668;23.396;2023-09-30T05:15:54;10.03;;;5.80;;
8058;SDS011;4072;42.668;23.396;2023-09-30T05:18:22;10.30;;;6.40;;
8058;SDS011;4072;42.668;23.396;2023-09-30T05:20:52;8.83;;;6.47;;
8058;SDS011;4072;42.668;23.396;2023-09-30T05:23:20;10.13;;;6.17;;
8058;SDS011;4072;42.668;23.396;2023-09-30T05:25:49;11.37;;;5.67;;
8058;SDS011;4072;42.668;23.396;2023-09-30T05:28:17;7.23;;;6.03;;
8058;SDS011;4072;42.668;23.396;2023-09-30T05:30:45;8.90;;;6.03;;
8058;SDS011;4072;42.668;23.396;2023-09-30T05:33:14;9.07;;;6.57;;
8058;SDS011;4072;42.668;23.396;2023-09-30T05:35:43;9.20;;;6.00;;
8058;SDS011;4072;42.668;23.396;2023-09-30T05:38:13;13.43;;;6.83;;
8058;SDS011;4072;42.668;23.396;2023-09-30T05:40:42;9.13;;;6.77;;
8058;SDS011;4072;42.668;23.396;2023-09-30T05:43:10;9.23;;;5.97;;
8058;SDS011;4072;42.668;23.396;2023-09-30T05:45:40;8.20;;;6.43;;
8058;SDS011;4072;42.668;23.396;2023-09-30T05:48:17;7.33;;;6.53;;
8058;SDS011;4072;42.668;23.396;2023-09-30T05:50:47;8.13;;;6.37;;
8058;SDS011;4072;42.668;23.396;2023-09-30T05:53:20;9.73;;;7.00;;
8058;SDS011;4072;42.668;23.396;2023-09-30T05:55:50;8.57;;;5.93;;
8058;SDS011;4072;42.668;23.396;2023-09-30T05:58:19;9.07;;;7.27;;
8058;SDS011;4072;42.668;23.396;2023-09-30T06:00:48;9.10;;;7.17;;
8058;SDS011;4072;42.668;23.396;2023-09-30T06:03:17;9.97;;;6.40;;
8058;SDS011;4072;42.668;23.396;2023-09-30T06:05:47;9.73;;;6.70;;
8058;SDS011;4072;42.668;23.396;2023-09-30T06:08:15;7.10;;;6.40;;
8058;SDS011;4072;42.668;23.396;2023-09-30T06:10:45;7.97;;;7.07;;
8058;SDS011;4072;42.668;23.396;2023-09-30T06:13:14;11.00;;;7.07;;
8058;SDS011;4072;42.668;23.396;2023-09-30T06:15:43;11.57;;;7.40;;
8058;SDS011;4072;42.668;23.396;2023-09-30T06:18:13;10.27;;;8.40;;
8058;SDS011;4072;42.668;23.396;2023-09-30T06:20:41;12.93;;;7.60;;
8058;SDS011;4072;42.668;23.396;2023-09-30T06:23:09;11.17;;;7.70;;
8058;SDS011;4072;42.668;23.396;2023-09-30T06:25:38;9.73;;;7.63;;
8058;SDS011;4072;42.668;23.396;2023-09-30T06:28:08;10.93;;;7.60;;
8058;SDS011;4072;42.668;23.396;2023-09-30T06:30:37;11.43;;;7.57;;
8058;SDS011;4072;42.668;23.396;2023-09-30T06:33:06;11.27;;;8.70;;
8058;SDS011;4072;42.668;23.396;2023-09-30T06:35:38;10.87;;;8.23;;
8058;SDS011;4072;42.668;23.396;2023-09-30T06:38:17;13.40;;;8.50;;
8058;SDS011;4072;42.668;23.396;2023-09-30T06:40:46;11.17;;;8.67;;
8058;SDS011;4072;42.668;23.396;2023-09-30T06:43:15;11.77;;;8.90;;
8058;SDS011;4072;42.668;23.396;2023-09-30T06:45:44;9.80;;;8.10;;
8058;SDS011;4072;42.668;23.396;2023-09-30T06:48:13;9.97;;;8.07;;
8058;SDS011;4072;42.668;23.396;2023-09-30T06:50:45;9.10;;;6.67;;
8058;SDS011;4072;42.668;23.396;2023-09-30T06:53:15;8.50;;;7.13;;
8058;SDS011;4072;42.668;23.396;2023-09-30T06:55:43;15.20;;;8.03;;
8058;SDS011;4072;42.668;23.396;2023-09-30T06:58:12;14.20;;;8.03;;
8058;SDS011;4072;42.668;23.396;2023-09-30T07:00:42;8.70;;;6.23;;
8058;SDS011;4072;42.668;23.396;2023-09-30T07:03:10;9.17;;;6.23;;
8058;SDS011;4072;42.668;23.396;2023-09-30T07:05:42;5.67;;;5.00;;
8058;SDS011;4072;42.668;23.396;2023-09-30T07:08:10;8.10;;;6.70;;
8058;SDS011;4072;42.668;23.396;2023-09-30T07:10:39;8.83;;;5.73;;
8058;SDS011;4072;42.668;23.396;2023-09-30T07:13:08;7.40;;;5.80;;
8058;SDS011;4072;42.668;23.396;2023-09-30T07:15:37;11.17;;;5.83;;
8058;SDS011;4072;42.668;23.396;2023-09-30T07:18:07;11.70;;;5.90;;
8058;SDS011;4072;42.668;23.396;2023-09-30T07:20:36;10.13;;;5.37;;
8058;SDS011;4072;42.668;23.396;2023-09-30T07:23:04;7.83;;;5.33;;
8058;SDS011;4072;42.668;23.396;2023-09-30T07:25:44;8.53;;;5.33;;
8058;SDS011;4072;42.668;23.396;2023-09-30T07:28:12;9.30;;;5.70;;
8058;SDS011;4072;42.668;23.396;2023-09-30T07:30:41;7.03;;;5.80;;
8058;SDS011;4072;42.668;23.396;2023-09-30T07:33:11;6.13;;;5.50;;
8058;SDS011;4072;42.668;23.396;2023-09-30T07:35:39;9.83;;;5.90;;
8058;SDS011;4072;42.668;23.396;2023-09-30T07:38:09;7.63;;;4.93;;
8058;SDS011;4072;42.668;23.396;2023-09-30T07:40:37;7.70;;;6.30;;
8058;SDS011;4072;42.668;23.396;2023-09-30T07:43:06;8.40;;;5.63;;
8058;SDS011;4072;42.668;23.396;2023-09-30T07:45:35;10.93;;;5.83;;
8058;SDS011;4072;42.668;23.396;2023-09-30T07:48:04;11.87;;;6.40;;
8058;SDS011;4072;42.668;23.396;2023-09-30T07:50:34;9.33;;;5.90;;
8058;SDS011;4072;42.668;23.396;2023-09-30T07:53:02;14.63;;;6.10;;
8058;SDS011;4072;42.668;23.396;2023-09-30T07:55:34;8.03;;;5.73;;
8058;SDS011;4072;42.668;23.396;2023-09-30T07:58:03;13.93;;;6.17;;
8058;SDS011;4072;42.668;23.396;2023-09-30T08:00:34;10.53;;;6.17;;
8058;SDS011;4072;42.668;23.396;2023-09-30T08:03:03;17.33;;;9.80;;
8058;SDS011;4072;42.668;23.396;2023-09-30T08:05:37;15.43;;;7.37;;
8058;SDS011;4072;42.668;23.396;2023-09-30T08:08:06;9.00;;;6.40;;
8058;SDS011;4072;42.668;23.396;2023-09-30T08:10:35;12.10;;;6.33;;
8058;SDS011;4072;42.668;23.396;2023-09-30T08:13:03;7.53;;;5.50;;
8058;SDS011;4072;42.668;23.396;2023-09-30T08:15:32;8.30;;;5.17;;
8058;SDS011;4072;42.668;23.396;2023-09-30T08:18:02;12.23;;;5.85;;
8058;SDS011;4072;42.668;23.396;2023-09-30T08:20:32;10.90;;;5.53;;
8058;SDS011;4072;42.668;23.396;2023-09-30T08:23:02;9.93;;;5.38;;
8058;SDS011;4072;42.668;23.396;2023-09-30T08:25:30;7.95;;;4.63;;
8058;SDS011;4072;42.668;23.396;2023-09-30T08:27:59;10.75;;;5.05;;
8058;SDS011;4072;42.668;23.396;2023-09-30T08:30:27;12.07;;;5.15;;
8058;SDS011;4072;42.668;23.396;2023-09-30T08:32:55;13.88;;;5.82;;
8058;SDS011;4072;42.668;23.396;2023-09-30T08:35:23;11.25;;;4.80;;
8058;SDS011;4072;42.668;23.396;2023-09-30T08:37:51;7.97;;;5.05;;
8058;SDS011;4072;42.668;23.396;2023-09-30T08:40:21;10.85;;;5.30;;
8058;SDS011;4072;42.668;23.396;2023-09-30T08:42:51;9.07;;;5.03;;
8058;SDS011;4072;42.668;23.396;2023-09-30T08:45:20;12.82;;;6.38;;
8058;SDS011;4072;42.668;23.396;2023-09-30T08:47:49;8.93;;;5.55;;
8058;SDS011;4072;42.668;23.396;2023-09-30T08:50:20;9.52;;;6.15;;
8058;SDS011;4072;42.668;23.396;2023-09-30T08:52:50;8.30;;;6.10;;
8058;SDS011;4072;42.668;23.396;2023-09-30T08:55:20;14.48;;;5.85;;
8058;SDS011;4072;42.668;23.396;2023-09-30T08:57:51;8.88;;;5.60;;
8058;SDS011;4072;42.668;23.396;2023-09-30T09:00:20;8.38;;;6.07;;
8058;SDS011;4072;42.668;23.396;2023-09-30T09:02:49;12.52;;;6.80;;
8058;SDS011;4072;42.668;23.396;2023-09-30T09:05:18;15.13;;;7.05;;
8058;SDS011;4072;42.668;23.396;2023-09-30T09:07:49;11.13;;;6.28;;
8058;SDS011;4072;42.668;23.396;2023-09-30T09:10:17;11.25;;;6.40;;
8058;SDS011;4072;42.668;23.396;2023-09-30T09:12:54;14.80;;;6.60;;
8058;SDS011;4072;42.668;23.396;2023-09-30T09:15:26;11.65;;;6.95;;
8058;SDS011;4072;42.668;23.396;2023-09-30T09:17:56;8.45;;;6.78;;
8058;SDS011;4072;42.668;23.396;2023-09-30T09:20:26;13.45;;;8.05;;
8058;SDS011;4072;42.668;23.396;2023-09-30T09:22:55;14.30;;;7.18;;
8058;SDS011;4072;42.668;23.396;2023-09-30T09:25:26;10.63;;;7.13;;
8058;SDS011;4072;42.668;23.396;2023-09-30T09:27:56;9.05;;;6.00;;
8058;SDS011;4072;42.668;23.396;2023-09-30T09:30:25;8.27;;;6.40;;
8058;SDS011;4072;42.668;23.396;2023-09-30T09:32:58;8.88;;;6.65;;
8058;SDS011;4072;42.668;23.396;2023-09-30T09:35:31;9.93;;;7.20;;
8058;SDS011;4072;42.668;23.396;2023-09-30T09:38:02;11.02;;;6.70;;
8058;SDS011;4072;42.668;23.396;2023-09-30T09:40:33;8.07;;;5.93;;
8058;SDS011;4072;42.668;23.396;2023-09-30T09:43:04;7.28;;;5.80;;
8058;SDS011;4072;42.668;23.396;2023-09-30T09:45:33;13.43;;;6.10;;
8058;SDS011;4072;42.668;23.396;2023-09-30T09:48:03;8.60;;;5.72;;
8058;SDS011;4072;42.668;23.396;2023-09-30T09:50:34;8.07;;;5.95;;
8058;SDS011;4072;42.668;23.396;2023-09-30T09:53:04;10.25;;;5.72;;
8058;SDS011;4072;42.668;23.396;2023-09-30T09:55:33;7.57;;;5.35;;
8058;SDS011;4072;42.668;23.396;2023-09-30T09:58:07;10.88;;;5.07;;
8058;SDS011;4072;42.668;23.396;2023-09-30T10:00:38;8.02;;;5.28;;
8058;SDS011;4072;42.668;23.396;2023-09-30T10:03:07;13.73;;;5.65;;
8058;SDS011;4072;42.668;23.396;2023-09-30T10:05:35;12.45;;;5.72;;
8058;SDS011;4072;42.668;23.396;2023-09-30T10:08:08;8.25;;;6.32;;
8058;SDS011;4072;42.668;23.396;2023-09-30T10:10:38;7.15;;;5.35;;
8058;SDS011;4072;42.668;23.396;2023-09-30T10:13:09;12.25;;;4.90;;
8058;SDS011;4072;42.668;23.396;2023-09-30T10:15:54;12.23;;;4.50;;
8058;SDS011;4072;42.668;23.396;2023-09-30T10:18:22;6.03;;;4.20;;
8058;SDS011;4072;42.668;23.396;2023-09-30T10:20:53;6.05;;;4.03;;
8058;SDS011;4072;42.668;23.396;2023-09-30T10:23:36;7.50;;;2.90;;
8058;SDS011;4072;42.668;23.396;2023-09-30T10:26:13;5.90;;;3.22;;
8058;SDS011;4072;42.668;23.396;2023-09-30T10:28:46;8.38;;;3.88;;
8058;SDS011;4072;42.668;23.396;2023-09-30T10:31:17;5.43;;;3.17;;
8058;SDS011;4072;42.668;23.396;2023-09-30T10:36:49;4.72;;;2.80;;
8058;SDS011;4072;42.668;23.396;2023-09-30T10:42:48;7.75;;;4.00;;
8058;SDS011;4072;42.668;23.396;2023-09-30T10:48:32;6.95;;;3.40;;
8058;SDS011;4072;42.668;23.396;2023-09-30T10:51:15;3.00;;;2.80;;
8058;SDS011;4072;42.668;23.396;2023-09-30T10:53:46;5.20;;;2.92;;
8058;SDS011;4072;42.668;23.396;2023-09-30T10:56:18;4.93;;;3.00;;
8058;SDS011;4072;42.668;23.396;2023-09-30T10:58:48;6.20;;;3.55;;
8058;SDS011;4072;42.668;23.396;2023-09-30T11:01:19;6.47;;;3.58;;
8058;SDS011;4072;42.668;23.396;2023-09-30T11:03:49;8.68;;;4.30;;
8058;SDS011;4072;42.668;23.396;2023-09-30T11:06:26;9.23;;;4.95;;
8058;SDS011;4072;42.668;23.396;2023-09-30T11:08:55;4.10;;;3.58;;
8058;SDS011;4072;42.668;23.396;2023-09-30T11:11:34;8.10;;;3.55;;
8058;SDS011;4072;42.668;23.396;2023-09-30T11:14:12;6.43;;;3.25;;
8058;SDS011;4072;42.668;23.396;2023-09-30T11:16:46;8.15;;;4.50;;
8058;SDS011;4072;42.668;23.396;2023-09-30T11:19:15;7.85;;;3.70;;
8058;SDS011;4072;42.668;23.396;2023-09-30T11:21:43;4.40;;;3.50;;
8058;SDS011;4072;42.668;23.396;2023-09-30T11:24:26;7.25;;;3.88;;
8058;SDS011;4072;42.668;23.396;2023-09-30T11:26:56;6.00;;;4.18;;
8058;SDS011;4072;42.668;23.396;2023-09-30T11:29:24;4.53;;;3.83;;
8058;SDS011;4072;42.668;23.396;2023-09-30T11:31:54;8.88;;;3.97;;
8058;SDS011;4072;42.668;23.396;2023-09-30T11:34:30;4.60;;;3.72;;
8058;SDS011;4072;42.668;23.396;2023-09-30T11:37:00;7.10;;;4.38;;
8058;SDS011;4072;42.668;23.396;2023-09-30T11:39:29;8.00;;;3.85;;
8058;SDS011;4072;42.668;23.396;2023-09-30T11:42:00;9.75;;;4.38;;
8058;SDS011;4072;42.668;23.396;2023-09-30T11:44:29;6.40;;;3.55;;
8058;SDS011;4072;42.668;23.396;2023-09-30T11:47:01;7.75;;;4.43;;
8058;SDS011;4072;42.668;23.396;2023-09-30T11:49:32;6.13;;;4.15;;
8058;SDS011;4072;42.668;23.396;2023-09-30T11:52:03;6.00;;;4.07;;
8058;SDS011;4072;42.668;23.396;2023-09-30T11:54:34;7.40;;;3.97;;
8058;SDS011;4072;42.668;23.396;2023-09-30T11:57:09;6.90;;;3.55;;
8058;SDS011;4072;42.668;23.396;2023-09-30T11:59:38;4.72;;;4.10;;
8058;SDS011;4072;42.668;23.396;2023-09-30T12:02:09;9.73;;;4.95;;
8058;SDS011;4072;42.668;23.396;2023-09-30T12:04:42;7.18;;;4.47;;
8058;SDS011;4072;42.668;23.396;2023-09-30T12:07:11;6.25;;;4.00;;
8058;SDS011;4072;42.668;23.396;2023-09-30T12:09:40;8.60;;;4.43;;
8058;SDS011;4072;42.668;23.396;2023-09-30T12:12:09;6.10;;;3.88;;
8058;SDS011;4072;42.668;23.396;2023-09-30T12:14:43;6.63;;;3.90;;
8058;SDS011;4072;42.668;23.396;2023-09-30T12:17:13;7.53;;;4.28;;
8058;SDS011;4072;42.668;23.396;2023-09-30T12:19:41;7.38;;;5.35;;
8058;SDS011;4072;42.668;23.396;2023-09-30T12:22:10;7.65;;;4.72;;
8058;SDS011;4072;42.668;23.396;2023-09-30T12:24:39;5.72;;;3.85;;
8058;SDS011;4072;42.668;23.396;2023-09-30T12:27:07;5.10;;;4.32;;
8058;SDS011;4072;42.668;23.396;2023-09-30T12:29:37;7.22;;;4.25;;
8058;SDS011;4072;42.668;23.396;2023-09-30T12:32:07;9.23;;;4.65;;
8058;SDS011;4072;42.668;23.396;2023-09-30T12:34:36;4.93;;;3.55;;
8058;SDS011;4072;42.668;23.396;2023-09-30T12:37:05;4.57;;;4.18;;
8058;SDS011;4072;42.668;23.396;2023-09-30T12:39:34;8.02;;;4.65;;
8058;SDS011;4072;42.668;23.396;2023-09-30T12:42:03;6.60;;;4.53;;
8058;SDS011;4072;42.668;23.396;2023-09-30T12:44:35;8.55;;;4.22;;
8058;SDS011;4072;42.668;23.396;2023-09-30T12:47:04;6.75;;;4.60;;
8058;SDS011;4072;42.668;23.396;2023-09-30T12:49:33;5.05;;;4.35;;
8058;SDS011;4072;42.668;23.396;2023-09-30T12:52:03;7.03;;;4.93;;
8058;SDS011;4072;42.668;23.396;2023-09-30T12:54:32;6.63;;;4.72;;
8058;SDS011;4072;42.668;23.396;2023-09-30T12:57:00;8.48;;;4.35;;
8058;SDS011;4072;42.668;23.396;2023-09-30T12:59:29;7.15;;;4.63;;
8058;SDS011;4072;42.668;23.396;2023-09-30T13:01:57;6.18;;;4.03;;
8058;SDS011;4072;42.668;23.396;2023-09-30T13:04:25;6.55;;;4.10;;
8058;SDS011;4072;42.668;23.396;2023-09-30T13:06:54;7.93;;;4.40;;
8058;SDS011;4072;42.668;23.396;2023-09-30T13:09:26;8.60;;;4.43;;
8058;SDS011;4072;42.668;23.396;2023-09-30T13:11:54;7.55;;;4.28;;
8058;SDS011;4072;42.668;23.396;2023-09-30T13:14:26;5.43;;;4.35;;
8058;SDS011;4072;42.668;23.396;2023-09-30T13:16:55;7.07;;;4.40;;
8058;SDS011;4072;42.668;23.396;2023-09-30T13:19:23;6.93;;;4.40;;
8058;SDS011;4072;42.668;23.396;2023-09-30T13:21:52;9.38;;;4.25;;
8058;SDS011;4072;42.668;23.396;2023-09-30T13:24:22;7.22;;;4.82;;
8058;SDS011;4072;42.668;23.396;2023-09-30T13:26:51;9.10;;;5.13;;
8058;SDS011;4072;42.668;23.396;2023-09-30T13:29:20;6.80;;;4.57;;
8058;SDS011;4072;42.668;23.396;2023-09-30T13:31:49;6.53;;;4.30;;
8058;SDS011;4072;42.668;23.396;2023-09-30T13:34:17;6.53;;;4.80;;
8058;SDS011;4072;42.668;23.396;2023-09-30T13:36:46;8.95;;;5.15;;
8058;SDS011;4072;42.668;23.396;2023-09-30T13:39:14;6.60;;;4.80;;
8058;SDS011;4072;42.668;23.396;2023-09-30T13:41:44;7.65;;;4.70;;
8058;SDS011;4072;42.668;23.396;2023-09-30T13:44:15;5.85;;;4.15;;
8058;SDS011;4072;42.668;23.396;2023-09-30T13:46:43;5.20;;;4.70;;
8058;SDS011;4072;42.668;23.396;2023-09-30T13:49:12;8.35;;;4.75;;
8058;SDS011;4072;42.668;23.396;2023-09-30T13:51:40;4.45;;;4.05;;
8058;SDS011;4072;42.668;23.396;2023-09-30T13:54:08;9.30;;;4.97;;
8058;SDS011;4072;42.668;23.396;2023-09-30T13:56:38;7.55;;;6.13;;
8058;SDS011;4072;42.668;23.396;2023-09-30T13:59:06;8.73;;;6.47;;
8058;SDS011;4072;42.668;23.396;2023-09-30T14:01:38;7.50;;;5.10;;
8058;SDS011;4072;42.668;23.396;2023-09-30T14:04:08;8.40;;;6.03;;
8058;SDS011;4072;42.668;23.396;2023-09-30T14:06:36;6.68;;;5.72;;
8058;SDS011;4072;42.668;23.396;2023-09-30T14:09:05;8.23;;;5.35;;
8058;SDS011;4072;42.668;23.396;2023-09-30T14:11:54;8.15;;;4.68;;
8058;SDS011;4072;42.668;23.396;2023-09-30T14:14:25;5.70;;;4.03;;
8058;SDS011;4072;42.668;23.396;2023-09-30T14:16:56;6.05;;;3.95;;
8058;SDS011;4072;42.668;23.396;2023-09-30T14:19:24;5.40;;;4.10;;
8058;SDS011;4072;42.668;23.396;2023-09-30T14:21:52;6.22;;;4.05;;
8058;SDS011;4072;42.668;23.396;2023-09-30T14:24:20;6.40;;;3.80;;
8058;SDS011;4072;42.668;23.396;2023-09-30T14:26:49;5.15;;;3.72;;
8058;SDS011;4072;42.668;23.396;2023-09-30T14:29:17;5.78;;;3.47;;
8058;SDS011;4072;42.668;23.396;2023-09-30T14:31:45;5.45;;;3.83;;
8058;SDS011;4072;42.668;23.396;2023-09-30T14:34:14;4.60;;;4.10;;
8058;SDS011;4072;42.668;23.396;2023-09-30T14:36:43;9.40;;;4.13;;
8058;SDS011;4072;42.668;23.396;2023-09-30T14:39:12;6.13;;;4.15;;
8058;SDS011;4072;42.668;23.396;2023-09-30T14:41:42;5.97;;;3.85;;
8058;SDS011;4072;42.668;23.396;2023-09-30T14:44:11;5.28;;;3.88;;
8058;SDS011;4072;42.668;23.396;2023-09-30T14:46:40;5.05;;;3.60;;
8058;SDS011;4072;42.668;23.396;2023-09-30T14:49:11;4.28;;;3.90;;
8058;SDS011;4072;42.668;23.396;2023-09-30T14:51:40;6.05;;;3.67;;
8058;SDS011;4072;42.668;23.396;2023-09-30T14:54:10;8.15;;;3.78;;
8058;SDS011;4072;42.668;23.396;2023-09-30T14:56:39;8.23;;;4.07;;
8058;SDS011;4072;42.668;23.396;2023-09-30T14:59:08;5.00;;;3.83;;
8058;SDS011;4072;42.668;23.396;2023-09-30T15:01:36;11.20;;;4.03;;
8058;SDS011;4072;42.668;23.396;2023-09-30T15:04:05;10.18;;;4.18;;
8058;SDS011;4072;42.668;23.396;2023-09-30T15:06:36;5.18;;;4.07;;
8058;SDS011;4072;42.668;23.396;2023-09-30T15:09:07;4.22;;;3.83;;
8058;SDS011;4072;42.668;23.396;2023-09-30T15:11:38;7.38;;;4.53;;
8058;SDS011;4072;42.668;23.396;2023-09-30T15:14:07;4.57;;;3.72;;
8058;SDS011;4072;42.668;23.396;2023-09-30T15:16:35;8.98;;;5.20;;
8058;SDS011;4072;42.668;23.396;2023-09-30T15:19:04;4.97;;;4.03;;
8058;SDS011;4072;42.668;23.396;2023-09-30T15:21:32;5.80;;;4.05;;
8058;SDS011;4072;42.668;23.396;2023-09-30T15:24:00;6.90;;;5.25;;